Time;durP1;ratioP1;P1;durP2;ratioP2;P2;SDS_P1;SDS_P2;PMS_P1;PMS_P2;Temp;Humidity;BMP_temperature;BMP_pressure;BME280_temperature;BME280_humidity;BME280_pressure;Samples;Min_cycle;Max_cycle;Signal;HPM_P1;HPM_P2
2024/04/11 00:00:15;;;;;;;8.80;2.33;;;;;;;;;;5309365;26;20005;-85
2024/04/11 00:02:44;;;;;;;10.73;2.33;;;;;;;;;;5330103;26;20023;-85
2024/04/11 00:05:12;;;;;;;9.82;2.45;;;;;;;;;;5315643;26;19997;-85
2024/04/11 00:07:40;;;;;;;8.70;2.33;;;;;;;;;;5339691;26;20012;-84
2024/04/11 00:10:09;;;;;;;12.68;2.50;;;;;;;;;;5303789;26;20019;-85
2024/04/11 00:12:36;;;;;;;10.38;2.10;;;;;;;;;;5303645;26;20084;-84
2024/04/11 00:15:04;;;;;;;9.65;2.80;;;;;;;;;;5323226;26;20506;-85
2024/04/11 00:17:31;;;;;;;10.18;2.53;;;;;;;;;;5332935;26;20020;-85
2024/04/11 00:19:59;;;;;;;10.95;2.30;;;;;;;;;;5331226;26;20028;-84
2024/04/11 00:22:28;;;;;;;8.48;1.95;;;;;;;;;;5304719;26;20012;-85
2024/04/11 00:24:57;;;;;;;9.32;1.80;;;;;;;;;;5296896;26;20075;-84
2024/04/11 00:27:26;;;;;;;10.07;2.00;;;;;;;;;;5304450;26;20015;-84
2024/04/11 00:29:54;;;;;;;9.95;2.30;;;;;;;;;;5323201;26;20037;-83
2024/04/11 00:32:27;;;;;;;7.30;1.70;;;;;;;;;;5336222;26;20045;-84
2024/04/11 00:34:54;;;;;;;8.82;1.92;;;;;;;;;;5293181;26;20004;-85
2024/04/11 00:37:24;;;;;;;9.65;1.73;;;;;;;;;;5332360;26;20020;-84
2024/04/11 00:39:52;;;;;;;8.93;2.00;;;;;;;;;;5316912;26;20012;-85
2024/04/11 00:42:20;;;;;;;10.18;2.25;;;;;;;;;;5278669;26;20019;-85
2024/04/11 00:44:47;;;;;;;9.70;2.00;;;;;;;;;;5278659;26;20769;-85
2024/04/11 00:47:15;;;;;;;11.32;2.00;;;;;;;;;;5311172;26;20478;-85
2024/04/11 00:49:46;;;;;;;8.75;2.10;;;;;;;;;;5275016;26;20016;-84
2024/04/11 00:52:14;;;;;;;9.43;1.90;;;;;;;;;;5312774;26;20094;-85
2024/04/11 00:54:42;;;;;;;10.88;1.88;;;;;;;;;;5277399;26;20021;-85
2024/04/11 00:57:10;;;;;;;9.68;2.05;;;;;;;;;;5281169;26;20582;-85
2024/04/11 00:59:39;;;;;;;10.75;2.15;;;;;;;;;;5313363;26;21488;-85
2024/04/11 01:02:10;;;;;;;9.82;2.25;;;;;;;;;;5317654;26;20087;-84
2024/04/11 01:04:37;;;;;;;8.52;1.95;;;;;;;;;;5270268;26;20040;-84
2024/04/11 01:07:10;;;;;;;;;;;;;;;;;;5295162;26;20001;-85
2024/04/11 01:09:47;;;;;;;8.55;1.98;;;;;;;;;;5296206;26;20000;-85
2024/04/11 01:12:17;;;;;;;7.03;1.63;;;;;;;;;;5275327;26;20061;-85
2024/04/11 01:14:45;;;;;;;8.73;2.17;;;;;;;;;;5277340;26;20020;-85
2024/04/11 01:17:21;;;;;;;8.25;1.65;;;;;;;;;;5303615;26;19997;-85
2024/04/11 01:19:48;;;;;;;7.53;1.80;;;;;;;;;;5339024;26;20005;-85
2024/04/11 01:22:15;;;;;;;8.63;1.90;;;;;;;;;;5304774;26;20089;-85
2024/04/11 01:24:43;;;;;;;8.60;1.80;;;;;;;;;;5332133;26;20020;-85
2024/04/11 01:27:12;;;;;;;9.10;1.73;;;;;;;;;;5301883;26;19997;-84
2024/04/11 01:29:41;;;;;;;9.15;2.10;;;;;;;;;;5292112;26;20060;-85
2024/04/11 01:32:08;;;;;;;8.35;2.10;;;;;;;;;;5295318;26;20051;-85
2024/04/11 01:34:35;;;;;;;7.05;1.60;;;;;;;;;;5295379;26;20017;-84
2024/04/11 01:37:03;;;;;;;7.28;1.50;;;;;;;;;;5266587;26;20249;-84
2024/04/11 01:39:31;;;;;;;10.27;1.88;;;;;;;;;;5301316;26;20016;-86
2024/04/11 01:41:58;;;;;;;9.27;1.90;;;;;;;;;;5331125;26;20013;-85
2024/04/11 01:44:27;;;;;;;9.40;1.70;;;;;;;;;;5294759;26;20004;-85
2024/04/11 01:46:55;;;;;;;7.53;1.65;;;;;;;;;;5327633;26;19997;-84
2024/04/11 01:49:23;;;;;;;8.88;2.13;;;;;;;;;;5328578;26;20515;-84
2024/04/11 01:51:51;;;;;;;6.65;1.58;;;;;;;;;;5260515;26;20005;-85
2024/04/11 01:54:19;;;;;;;7.63;1.67;;;;;;;;;;5328417;26;20013;-85
2024/04/11 01:56:46;;;;;;;8.02;1.90;;;;;;;;;;5328690;26;20072;-84
2024/04/11 01:59:13;;;;;;;;;;;;;;;;;;5291508;26;20011;-84
2024/04/11 02:01:39;;;;;;;8.18;1.92;;;;;;;;;;5289898;26;19961;-85
2024/04/11 02:04:05;;;;;;;;;;;;;;;;;;5274769;26;20012;-85
2024/04/11 02:06:34;;;;;;;8.57;1.80;;;;;;;;;;5307104;26;19954;-85
2024/04/11 02:09:09;;;;;;;7.88;1.77;;;;;;;;;;5323164;26;20001;-85
2024/04/11 02:11:43;;;;;;;9.60;2.20;;;;;;;;;;5331269;26;20013;-85
2024/04/11 02:14:11;;;;;;;10.55;2.20;;;;;;;;;;5291231;26;20013;-85
2024/04/11 02:16:40;;;;;;;9.52;1.98;;;;;;;;;;5289122;26;20024;-85
2024/04/11 02:19:12;;;;;;;8.60;1.80;;;;;;;;;;5329382;26;20021;-85
2024/04/11 02:21:43;;;;;;;9.52;2.05;;;;;;;;;;5290136;26;20009;-85
2024/04/11 02:24:16;;;;;;;8.80;1.90;;;;;;;;;;5328660;26;20028;-86
2024/04/11 02:26:52;;;;;;;11.65;2.10;;;;;;;;;;5328573;26;20009;-85
2024/04/11 02:29:23;;;;;;;9.73;1.83;;;;;;;;;;5299603;26;20107;-85
2024/04/11 02:31:54;;;;;;;8.35;1.83;;;;;;;;;;5289141;26;20016;-85
2024/04/11 02:34:25;;;;;;;10.32;1.90;;;;;;;;;;5283091;26;20017;-85
2024/04/11 02:36:53;;;;;;;8.98;2.15;;;;;;;;;;5330740;26;20063;-85
2024/04/11 02:39:20;;;;;;;8.75;1.92;;;;;;;;;;5305942;26;20010;-85
2024/04/11 02:41:47;;;;;;;10.00;2.50;;;;;;;;;;5344186;26;20008;-86
2024/04/11 02:44:20;;;;;;;8.48;2.20;;;;;;;;;;5305720;26;20004;-85
2024/04/11 02:46:50;;;;;;;10.80;2.20;;;;;;;;;;5332203;26;20004;-83
2024/04/11 02:49:18;;;;;;;10.00;2.03;;;;;;;;;;5332994;26;20027;-85
2024/04/11 02:51:45;;;;;;;10.90;2.05;;;;;;;;;;5327363;26;20005;-85
2024/04/11 02:54:14;;;;;;;11.80;2.33;;;;;;;;;;5332036;26;20841;-85
2024/04/11 02:56:41;;;;;;;10.18;2.45;;;;;;;;;;5296196;26;20012;-85
2024/04/11 02:59:11;;;;;;;10.35;2.30;;;;;;;;;;5299819;26;20063;-86
2024/04/11 03:01:41;;;;;;;11.52;2.60;;;;;;;;;;5296957;26;20123;-84
2024/04/11 03:04:09;;;;;;;10.45;2.33;;;;;;;;;;5295489;26;20017;-85
2024/04/11 03:06:37;;;;;;;10.13;2.45;;;;;;;;;;5320880;26;20016;-84
2024/04/11 03:09:09;;;;;;;11.50;3.00;;;;;;;;;;5319225;26;20027;-85
2024/04/11 03:11:38;;;;;;;13.73;3.03;;;;;;;;;;5305521;26;20001;-85
2024/04/11 03:14:08;;;;;;;10.82;2.80;;;;;;;;;;5307710;26;20020;-86
2024/04/11 03:16:41;;;;;;;12.40;2.97;;;;;;;;;;5271831;26;20023;-86
2024/04/11 03:19:07;;;;;;;16.70;3.63;;;;;;;;;;5299424;26;20021;-86
2024/04/11 03:21:34;;;;;;;;;;;;;;;;;;5271471;26;20103;-85
2024/04/11 03:24:06;;;;;;;19.05;4.00;;;;;;;;;;5322782;26;19926;-85
2024/04/11 03:26:33;;;;;;;16.45;3.88;;;;;;;;;;5327285;26;19996;-85
2024/04/11 03:29:02;;;;;;;14.77;3.70;;;;;;;;;;5276889;26;20027;-84
2024/04/11 03:31:30;;;;;;;14.40;3.97;;;;;;;;;;5309028;26;20017;-84
2024/04/11 03:33:59;;;;;;;16.15;4.32;;;;;;;;;;5277800;26;20009;-84
2024/04/11 03:36:27;;;;;;;15.57;3.83;;;;;;;;;;5251126;26;23113;-84
2024/04/11 03:38:55;;;;;;;16.25;4.22;;;;;;;;;;5258911;26;20012;-84
2024/04/11 03:41:23;;;;;;;14.70;3.53;;;;;;;;;;5261228;26;20122;-85
2024/04/11 03:43:54;;;;;;;15.73;3.63;;;;;;;;;;5300842;26;20005;-86
2024/04/11 03:46:24;;;;;;;19.27;4.90;;;;;;;;;;5291568;26;20016;-84
2024/04/11 03:48:59;;;;;;;19.27;4.35;;;;;;;;;;5331877;26;20098;-85
2024/04/11 03:51:30;;;;;;;16.05;4.03;;;;;;;;;;5297452;26;20082;-85
2024/04/11 03:53:56;;;;;;;16.42;3.97;;;;;;;;;;5256945;26;20013;-85
2024/04/11 03:56:24;;;;;;;14.10;4.07;;;;;;;;;;5294063;26;20051;-85
2024/04/11 03:58:52;;;;;;;23.15;4.32;;;;;;;;;;5283848;26;20911;-85
2024/04/11 04:01:21;;;;;;;17.88;4.22;;;;;;;;;;5323947;26;19997;-85
2024/04/11 04:03:48;;;;;;;17.58;4.30;;;;;;;;;;5288321;26;20008;-85
2024/04/11 04:06:27;;;;;;;18.42;3.63;;;;;;;;;;5288731;26;20012;-85
2024/04/11 04:08:55;;;;;;;14.30;3.67;;;;;;;;;;5277985;26;20092;-84
2024/04/11 04:11:25;;;;;;;18.10;4.07;;;;;;;;;;5328662;26;20033;-85
2024/04/11 04:13:53;;;;;;;19.85;4.18;;;;;;;;;;5325177;26;20005;-86
2024/04/11 04:16:19;;;;;;;16.15;3.65;;;;;;;;;;5286077;26;20005;-85
2024/04/11 04:18:50;;;;;;;17.88;3.70;;;;;;;;;;5286092;26;20009;-85
2024/04/11 04:21:20;;;;;;;13.20;3.30;;;;;;;;;;5289164;26;20001;-85
2024/04/11 04:23:49;;;;;;;13.57;3.65;;;;;;;;;;5254728;26;20881;-85
2024/04/11 04:26:20;;;;;;;15.70;3.70;;;;;;;;;;5287615;26;20015;-85
2024/04/11 04:28:48;;;;;;;15.10;3.30;;;;;;;;;;5281664;26;20035;-85
2024/04/11 04:31:31;;;;;;;13.85;3.17;;;;;;;;;;5312083;26;20061;-85
2024/04/11 04:34:03;;;;;;;15.65;3.40;;;;;;;;;;5283079;26;20019;-85
2024/04/11 04:36:40;;;;;;;15.45;3.40;;;;;;;;;;5286571;26;20026;-84
2024/04/11 04:39:07;;;;;;;13.10;3.28;;;;;;;;;;5319819;26;20445;-85
2024/04/11 04:41:35;;;;;;;12.82;3.17;;;;;;;;;;5287458;26;20048;-84
2024/04/11 04:44:03;;;;;;;13.40;2.92;;;;;;;;;;5279308;26;20009;-85
2024/04/11 04:46:30;;;;;;;12.07;2.88;;;;;;;;;;5288365;26;20005;-85
2024/04/11 04:49:00;;;;;;;11.73;2.85;;;;;;;;;;5288914;26;19997;-85
2024/04/11 04:51:31;;;;;;;13.95;2.80;;;;;;;;;;5288119;26;20028;-85
2024/04/11 04:54:03;;;;;;;12.73;2.58;;;;;;;;;;5318097;26;20471;-85
2024/04/11 04:56:33;;;;;;;13.32;2.70;;;;;;;;;;5321288;26;20024;-85
2024/04/11 04:59:04;;;;;;;12.20;2.80;;;;;;;;;;5289230;26;20009;-85
2024/04/11 05:01:33;;;;;;;13.13;2.65;;;;;;;;;;5290934;26;20009;-85
2024/04/11 05:04:02;;;;;;;11.52;2.80;;;;;;;;;;5318325;26;20009;-86
2024/04/11 05:06:32;;;;;;;11.23;2.75;;;;;;;;;;5286614;26;20009;-85
2024/04/11 05:09:00;;;;;;;11.65;2.88;;;;;;;;;;5285683;26;20009;-86
2024/04/11 05:11:31;;;;;;;12.90;2.60;;;;;;;;;;5288500;26;20561;-85
2024/04/11 05:13:59;;;;;;;13.35;2.80;;;;;;;;;;5285083;26;20013;-84
2024/04/11 05:16:28;;;;;;;15.18;3.00;;;;;;;;;;5290434;26;20017;-86
2024/04/11 05:18:58;;;;;;;14.65;2.83;;;;;;;;;;5315281;26;20443;-86
2024/04/11 05:21:24;;;;;;;13.27;2.72;;;;;;;;;;5289433;26;21042;-86
2024/04/11 05:23:50;;;;;;;;;;;;;;;;;;5284900;26;21083;-85
2024/04/11 05:26:23;;;;;;;10.65;2.40;;;;;;;;;;5287037;26;20003;-84
2024/04/11 05:29:07;;;;;;;10.95;2.60;;;;;;;;;;5289031;26;20012;-85
2024/04/11 05:31:37;;;;;;;11.95;2.70;;;;;;;;;;5286256;26;20791;-86
2024/04/11 05:34:13;;;;;;;11.52;2.30;;;;;;;;;;5321089;26;20017;-86
2024/04/11 05:36:41;;;;;;;13.02;2.83;;;;;;;;;;5289329;26;20659;-83
2024/04/11 05:39:14;;;;;;;12.00;2.80;;;;;;;;;;5294833;26;20005;-85
2024/04/11 05:41:46;;;;;;;13.15;2.60;;;;;;;;;;5296535;26;20016;-85
2024/04/11 05:44:14;;;;;;;10.23;2.20;;;;;;;;;;5309879;26;20008;-85
2024/04/11 05:46:45;;;;;;;10.98;2.28;;;;;;;;;;5310091;26;20001;-85
2024/04/11 05:49:22;;;;;;;7.95;2.10;;;;;;;;;;5321749;26;20752;-85
2024/04/11 05:51:50;;;;;;;7.90;1.70;;;;;;;;;;5286825;26;20005;-85
2024/04/11 05:54:19;;;;;;;10.73;2.20;;;;;;;;;;5290243;26;20012;-84
2024/04/11 05:56:48;;;;;;;8.00;1.60;;;;;;;;;;5323835;26;20539;-84
2024/04/11 05:59:16;;;;;;;8.63;2.03;;;;;;;;;;5290287;26;20021;-84
2024/04/11 06:01:46;;;;;;;9.05;1.50;;;;;;;;;;5314945;26;20001;-85
2024/04/11 06:04:16;;;;;;;10.40;2.00;;;;;;;;;;5314314;26;20012;-85
2024/04/11 06:06:44;;;;;;;8.70;1.67;;;;;;;;;;5308709;26;20012;-84
2024/04/11 06:09:13;;;;;;;10.48;1.92;;;;;;;;;;5286784;26;20020;-83
2024/04/11 06:11:43;;;;;;;10.32;1.90;;;;;;;;;;5315062;26;20027;-86
2024/04/11 06:14:12;;;;;;;7.72;1.60;;;;;;;;;;5313350;26;20019;-84
2024/04/11 06:16:40;;;;;;;9.23;2.00;;;;;;;;;;5284581;26;20020;-84
2024/04/11 06:19:07;;;;;;;8.18;1.73;;;;;;;;;;5289116;26;20017;-84
2024/04/11 06:21:45;;;;;;;9.40;2.13;;;;;;;;;;5316309;26;20005;-84
2024/04/11 06:24:13;;;;;;;8.20;1.90;;;;;;;;;;5290140;26;20012;-84
2024/04/11 06:26:39;;;;;;;11.55;2.00;;;;;;;;;;5283563;26;20008;-86
2024/04/11 06:29:07;;;;;;;12.35;2.10;;;;;;;;;;5292214;26;20133;-85
2024/04/11 06:31:38;;;;;;;9.20;1.98;;;;;;;;;;5316549;26;20358;-87
2024/04/11 06:34:08;;;;;;;9.23;1.90;;;;;;;;;;5287778;26;20057;-86
2024/04/11 06:36:38;;;;;;;8.68;1.80;;;;;;;;;;5316722;26;20021;-85
2024/04/11 06:39:13;;;;;;;11.38;2.38;;;;;;;;;;5316127;26;20013;-86
2024/04/11 06:41:41;;;;;;;10.50;1.95;;;;;;;;;;5281087;26;20071;-85
2024/04/11 06:44:08;;;;;;;13.60;2.40;;;;;;;;;;5287514;26;20001;-86
2024/04/11 06:46:39;;;;;;;9.77;2.08;;;;;;;;;;5290040;26;20012;-86
2024/04/11 06:49:06;;;;;;;12.50;2.53;;;;;;;;;;5284910;26;20056;-80
2024/04/11 06:51:37;;;;;;;10.02;2.35;;;;;;;;;;5271037;26;20594;-80
2024/04/11 06:54:05;;;;;;;12.70;2.10;;;;;;;;;;5272963;26;20017;-80
2024/04/11 06:56:32;;;;;;;11.70;2.03;;;;;;;;;;5251757;26;20008;-81
2024/04/11 06:59:00;;;;;;;8.80;2.00;;;;;;;;;;5305177;26;20013;-80
2024/04/11 07:01:28;;;;;;;11.98;2.28;;;;;;;;;;5303514;26;20025;-81
2024/04/11 07:04:00;;;;;;;12.38;1.90;;;;;;;;;;5271300;26;19997;-81
2024/04/11 07:06:29;;;;;;;12.77;2.10;;;;;;;;;;5278032;26;20017;-81
2024/04/11 07:09:03;;;;;;;15.60;2.15;;;;;;;;;;5304196;26;20024;-81
2024/04/11 07:11:40;;;;;;;8.02;1.90;;;;;;;;;;5277320;26;20064;-81
2024/04/11 07:14:20;;;;;;;8.10;1.63;;;;;;;;;;5308240;26;20009;-80
2024/04/11 07:16:56;;;;;;;11.98;2.00;;;;;;;;;;5277711;26;20331;-81
2024/04/11 07:19:24;;;;;;;11.50;2.05;;;;;;;;;;5305591;26;20582;-81
2024/04/11 07:21:52;;;;;;;10.30;2.22;;;;;;;;;;5278495;26;20031;-81
2024/04/11 07:24:23;;;;;;;12.73;2.10;;;;;;;;;;5305662;26;20013;-81
2024/04/11 07:26:54;;;;;;;9.95;2.08;;;;;;;;;;5309548;26;20020;-82
2024/04/11 07:29:24;;;;;;;8.55;1.90;;;;;;;;;;5282071;26;20000;-81
2024/04/11 07:31:53;;;;;;;7.70;1.60;;;;;;;;;;5306861;26;20064;-80
2024/04/11 07:34:25;;;;;;;8.23;1.90;;;;;;;;;;5281588;26;20012;-81
2024/04/11 07:36:52;;;;;;;12.63;2.25;;;;;;;;;;5304180;26;20027;-80
2024/04/11 07:39:20;;;;;;;8.95;2.08;;;;;;;;;;5305831;26;20028;-81
2024/04/11 07:42:00;;;;;;;13.38;2.17;;;;;;;;;;5302724;26;20035;-80
2024/04/11 07:44:28;;;;;;;9.10;1.83;;;;;;;;;;5301498;26;20051;-81
2024/04/11 07:46:58;;;;;;;10.40;2.10;;;;;;;;;;5269451;26;21002;-81
2024/04/11 07:49:26;;;;;;;11.18;2.40;;;;;;;;;;5270924;26;20024;-80
2024/04/11 07:51:54;;;;;;;7.93;1.75;;;;;;;;;;5302652;26;20009;-82
2024/04/11 07:54:23;;;;;;;8.52;1.83;;;;;;;;;;5311046;26;20028;-81
2024/04/11 07:57:01;;;;;;;6.72;1.60;;;;;;;;;;5307382;26;22027;-79
2024/04/11 07:59:30;;;;;;;9.57;2.08;;;;;;;;;;5308754;26;20012;-82
2024/04/11 08:01:57;;;;;;;10.52;1.73;;;;;;;;;;5272489;26;20016;-79
2024/04/11 08:04:26;;;;;;;10.65;2.03;;;;;;;;;;5310945;26;20012;-79
2024/04/11 08:06:54;;;;;;;8.38;1.75;;;;;;;;;;5303581;26;20015;-79
2024/04/11 08:09:23;;;;;;;8.65;1.67;;;;;;;;;;5265025;26;20023;-82
2024/04/11 08:11:51;;;;;;;12.05;1.90;;;;;;;;;;5249808;26;20037;-79
2024/04/11 08:14:18;;;;;;;10.95;1.90;;;;;;;;;;5291665;26;21371;-79
2024/04/11 08:16:47;;;;;;;10.07;1.85;;;;;;;;;;5293145;26;20001;-79
2024/04/11 08:19:17;;;;;;;9.65;2.17;;;;;;;;;;5265887;26;20088;-79
2024/04/11 08:21:46;;;;;;;9.13;1.92;;;;;;;;;;5300706;26;20370;-79
2024/04/11 08:24:15;;;;;;;14.00;2.10;;;;;;;;;;5276778;26;20020;-80
2024/04/11 08:26:44;;;;;;;11.35;2.22;;;;;;;;;;5259247;26;20016;-80
2024/04/11 08:29:13;;;;;;;12.70;2.22;;;;;;;;;;5259843;26;20011;-80
2024/04/11 08:31:41;;;;;;;9.50;1.83;;;;;;;;;;5288445;26;20105;-80
2024/04/11 08:34:12;;;;;;;11.93;1.85;;;;;;;;;;5260677;26;20001;-80
2024/04/11 08:36:40;;;;;;;11.38;1.85;;;;;;;;;;5260476;26;20033;-79
2024/04/11 08:39:14;;;;;;;9.48;2.10;;;;;;;;;;5255206;26;20017;-80
2024/04/11 08:41:51;;;;;;;12.65;2.08;;;;;;;;;;5287353;26;21511;-80
2024/04/11 08:44:17;;;;;;;;;;;;;;;;;;5281508;26;20037;-81
2024/04/11 08:46:45;;;;;;;11.13;1.75;;;;;;;;;;5298572;26;19929;-81
2024/04/11 08:49:13;;;;;;;7.68;1.50;;;;;;;;;;5288169;26;20016;-81
2024/04/11 08:51:47;;;;;;;12.05;2.00;;;;;;;;;;5302592;26;20013;-80
2024/04/11 08:54:19;;;;;;;9.85;2.20;;;;;;;;;;5249285;26;20019;-80
2024/04/11 08:56:47;;;;;;;8.80;1.75;;;;;;;;;;5251106;26;20012;-79
2024/04/11 08:59:16;;;;;;;10.13;2.05;;;;;;;;;;5314656;26;20002;-80
2024/04/11 09:01:45;;;;;;;7.97;2.00;;;;;;;;;;5277854;26;20033;-80
2024/04/11 09:04:16;;;;;;;9.20;2.35;;;;;;;;;;5252776;26;20578;-81
2024/04/11 09:06:53;;;;;;;10.35;2.15;;;;;;;;;;5307148;26;20185;-79
2024/04/11 09:09:23;;;;;;;9.15;2.13;;;;;;;;;;5282616;26;20013;-79
2024/04/11 09:11:52;;;;;;;8.00;1.95;;;;;;;;;;5277497;26;20009;-79
2024/04/11 09:14:20;;;;;;;8.88;2.00;;;;;;;;;;5313687;26;20616;-79
2024/04/11 09:17:09;;;;;;;7.65;1.88;;;;;;;;;;5305820;26;20005;-79
2024/04/11 09:19:40;;;;;;;13.85;2.13;;;;;;;;;;5316588;26;20001;-81
2024/04/11 09:22:16;;;;;;;10.88;1.80;;;;;;;;;;5320725;26;20068;-79
2024/04/11 09:24:51;;;;;;;11.35;2.08;;;;;;;;;;5255109;26;20470;-80
2024/04/11 09:27:20;;;;;;;10.35;2.55;;;;;;;;;;5283458;26;20004;-80
2024/04/11 09:30:03;;;;;;;10.48;2.50;;;;;;;;;;5310133;26;20009;-80
2024/04/11 09:32:30;;;;;;;9.65;1.95;;;;;;;;;;5314877;26;20009;-80
2024/04/11 09:35:05;;;;;;;10.82;1.88;;;;;;;;;;5310039;26;20422;-79
2024/04/11 09:37:32;;;;;;;11.77;1.92;;;;;;;;;;5315668;26;20019;-80
2024/04/11 09:40:11;;;;;;;9.45;1.80;;;;;;;;;;5272561;26;20028;-80
2024/04/11 09:42:47;;;;;;;10.23;1.90;;;;;;;;;;5302301;26;20031;-79
2024/04/11 09:45:18;;;;;;;8.73;2.13;;;;;;;;;;5315775;26;20110;-79
2024/04/11 09:47:47;;;;;;;14.00;2.22;;;;;;;;;;5316826;26;20009;-79
2024/04/11 09:50:17;;;;;;;12.63;1.85;;;;;;;;;;5320696;26;20024;-79
2024/04/11 09:52:45;;;;;;;10.15;1.83;;;;;;;;;;5291733;26;20009;-81
2024/04/11 09:55:15;;;;;;;13.93;2.38;;;;;;;;;;5327453;26;20431;-80
2024/04/11 09:57:48;;;;;;;10.93;2.10;;;;;;;;;;5284524;26;20005;-79
2024/04/11 10:01:16;;;;;;;17.08;2.13;;;;;;;;;;5316082;26;20005;-79
2024/04/11 10:03:12;;;;;;;15.55;2.05;;;;;;;;;;5296656;26;20005;-80
2024/04/11 10:05:40;;;;;;;14.48;2.80;;;;;;;;;;5325491;26;20019;-79
2024/04/11 10:08:16;;;;;;;13.48;2.75;;;;;;;;;;5326713;26;20110;-79
2024/04/11 10:10:42;;;;;;;9.88;2.15;;;;;;;;;;5289136;26;20009;-80
2024/04/11 10:13:12;;;;;;;7.28;1.77;;;;;;;;;;5286496;26;20045;-80
2024/04/11 10:15:39;;;;;;;17.80;2.40;;;;;;;;;;5281288;26;20012;-79
2024/04/11 10:18:08;;;;;;;16.10;2.30;;;;;;;;;;5317027;26;20028;-79
2024/04/11 10:20:44;;;;;;;12.05;2.33;;;;;;;;;;5283689;26;20001;-79
2024/04/11 10:23:15;;;;;;;;;;;;;;;;;;5315735;26;20001;-80
2024/04/11 10:25:41;;;;;;;11.57;2.25;;;;;;;;;;5306068;26;21663;-79
2024/04/11 10:28:14;;;;;;;14.27;2.67;;;;;;;;;;5311962;26;20005;-79
2024/04/11 10:30:42;;;;;;;12.88;2.30;;;;;;;;;;5302741;26;20495;-79
2024/04/11 10:33:13;;;;;;;13.30;2.17;;;;;;;;;;5278930;26;20005;-79
2024/04/11 10:35:46;;;;;;;14.45;2.90;;;;;;;;;;5274625;26;20049;-79
2024/04/11 10:38:19;;;;;;;10.20;2.35;;;;;;;;;;5308465;26;20008;-79
2024/04/11 10:40:45;;;;;;;9.13;1.90;;;;;;;;;;5271606;26;20001;-79
2024/04/11 10:43:11;;;;;;;12.07;2.47;;;;;;;;;;5276719;26;20567;-79
2024/04/11 10:45:38;;;;;;;13.57;2.40;;;;;;;;;;5269286;26;20020;-79
2024/04/11 10:48:09;;;;;;;9.05;1.95;;;;;;;;;;5304514;26;20013;-80
2024/04/11 10:50:35;;;;;;;7.43;1.55;;;;;;;;;;5273510;26;20019;-80
2024/04/11 10:53:05;;;;;;;8.48;1.80;;;;;;;;;;5268403;26;20033;-80
2024/04/11 10:55:35;;;;;;;16.48;2.33;;;;;;;;;;5309132;26;20929;-80
2024/04/11 10:58:14;;;;;;;13.10;2.00;;;;;;;;;;5305946;26;21024;-80
2024/04/11 11:06:15;;;;;;;12.65;2.50;;;;;;;;;;5305135;26;20440;-82
2024/04/11 11:08:45;;;;;;;13.70;2.40;;;;;;;;;;5267253;26;20547;-81
2024/04/11 11:11:14;;;;;;;14.18;2.40;;;;;;;;;;5304606;26;20040;-81
2024/04/11 11:13:47;;;;;;;12.15;2.60;;;;;;;;;;5272159;26;20844;-81
2024/04/11 11:16:20;;;;;;;14.00;2.72;;;;;;;;;;5304439;26;20056;-81
2024/04/11 11:18:47;;;;;;;32.20;4.22;;;;;;;;;;5285857;26;20071;-81
2024/04/11 11:21:16;;;;;;;106.32;9.55;;;;;;;;;;5314186;26;20498;-81
2024/04/11 11:23:45;;;;;;;14.43;3.60;;;;;;;;;;5286694;26;20001;-80
2024/04/11 11:26:22;;;;;;;18.77;2.75;;;;;;;;;;5280435;26;20020;-81
2024/04/11 11:28:51;;;;;;;13.75;2.80;;;;;;;;;;5274605;26;20005;-79
2024/04/11 11:31:20;;;;;;;19.23;3.10;;;;;;;;;;5315427;26;20047;-80
2024/04/11 11:33:50;;;;;;;19.25;3.20;;;;;;;;;;5275808;26;20004;-82
2024/04/11 11:36:19;;;;;;;17.05;3.60;;;;;;;;;;5280392;26;20015;-79
2024/04/11 11:38:48;;;;;;;21.17;3.15;;;;;;;;;;5271187;26;20611;-79
2024/04/11 11:41:15;;;;;;;18.77;3.60;;;;;;;;;;5290473;26;20014;-79
2024/04/11 11:43:45;;;;;;;21.60;3.85;;;;;;;;;;5309081;26;20000;-80
2024/04/11 11:46:26;;;;;;;15.02;3.50;;;;;;;;;;5281685;26;19996;-80
2024/04/11 11:48:57;;;;;;;12.65;2.95;;;;;;;;;;5272675;26;20020;-79
2024/04/11 11:51:29;;;;;;;15.40;3.05;;;;;;;;;;5294176;26;20012;-80
2024/04/11 11:54:00;;;;;;;14.55;2.92;;;;;;;;;;5270382;26;20020;-79
2024/04/11 11:56:31;;;;;;;15.23;2.95;;;;;;;;;;5276042;26;19996;-77
2024/04/11 11:59:02;;;;;;;11.80;2.70;;;;;;;;;;5280867;26;23368;-79
2024/04/11 12:01:31;;;;;;;25.17;4.03;;;;;;;;;;5286359;26;20002;-79
2024/04/11 12:03:59;;;;;;;17.55;2.92;;;;;;;;;;5276209;26;20085;-79
2024/04/11 12:08:47;;;;;;;14.95;3.15;;;;;;;;;;5446015;25;20439;-66
2024/04/11 12:11:14;;;;;;;13.90;3.00;;;;;;;;;;5385676;26;20010;-66
2024/04/11 12:13:51;;;;;;;15.82;3.10;;;;;;;;;;5381817;26;20004;-66
2024/04/11 12:16:18;;;;;;;16.00;3.38;;;;;;;;;;5390010;26;20062;-66
2024/04/11 12:18:48;;;;;;;18.08;3.55;;;;;;;;;;5383105;26;20135;-66
2024/04/11 12:21:26;;;;;;;16.48;3.85;;;;;;;;;;5392980;26;20007;-67
2024/04/11 12:23:56;;;;;;;12.27;3.08;;;;;;;;;;5387315;26;20017;-67
2024/04/11 12:26:29;;;;;;;12.15;4.03;;;;;;;;;;5394969;26;20011;-67
2024/04/11 12:28:56;;;;;;;15.95;3.80;;;;;;;;;;5379945;26;20088;-66
2024/04/11 12:31:26;;;;;;;14.38;4.03;;;;;;;;;;5392431;26;20017;-66
2024/04/11 12:33:56;;;;;;;15.55;3.72;;;;;;;;;;5385985;26;20007;-66
2024/04/11 12:39:32;;;;;;;17.95;3.83;;;;;;;;;;5330022;26;20004;-66
2024/04/11 12:42:00;;;;;;;17.88;4.70;;;;;;;;;;5332902;26;20024;-66
2024/04/11 12:44:30;;;;;;;13.82;3.78;;;;;;;;;;5337810;26;20052;-66
2024/04/11 12:47:00;;;;;;;14.75;3.88;;;;;;;;;;5337436;26;20019;-65
2024/04/11 12:49:29;;;;;;;12.27;3.50;;;;;;;;;;5345237;26;20008;-67
2024/04/11 12:51:57;;;;;;;14.60;3.80;;;;;;;;;;5336442;26;20032;-66
2024/04/11 12:54:28;;;;;;;13.15;3.13;;;;;;;;;;5344756;26;20080;-67
2024/04/11 12:56:56;;;;;;;12.57;3.35;;;;;;;;;;5332650;26;20643;-67
2024/04/11 12:59:30;;;;;;;15.38;3.45;;;;;;;;;;5345239;26;20000;-66
2024/04/11 13:01:58;;;;;;;11.15;3.08;;;;;;;;;;5330284;26;20026;-66
2024/04/11 13:04:32;;;;;;;11.68;3.10;;;;;;;;;;5344141;26;20085;-66
2024/04/11 13:07:10;;;;;;;15.43;3.80;;;;;;;;;;5336698;26;20050;-66
2024/04/11 13:09:48;;;;;;;13.18;3.20;;;;;;;;;;5317398;26;20004;-66
2024/04/11 13:12:19;;;;;;;27.73;4.68;;;;;;;;;;5344132;26;20000;-66
2024/04/11 13:17:51;;;;;;;11.45;2.95;;;;;;;;;;5353649;26;20082;-66
2024/04/11 13:20:27;;;;;;;13.88;3.45;;;;;;;;;;5340526;26;20003;-66
2024/04/11 13:23:09;;;;;;;11.90;3.22;;;;;;;;;;5337290;26;20580;-66
2024/04/11 13:25:45;;;;;;;16.00;3.80;;;;;;;;;;5339555;26;20004;-66
2024/04/11 13:28:13;;;;;;;15.10;4.10;;;;;;;;;;5346926;26;20022;-66
2024/04/11 13:30:46;;;;;;;14.02;3.65;;;;;;;;;;5344086;26;20004;-66
2024/04/11 13:33:18;;;;;;;14.57;3.50;;;;;;;;;;5339609;26;20017;-66
2024/04/11 13:35:49;;;;;;;15.38;3.60;;;;;;;;;;5328150;26;20011;-65
2024/04/11 13:38:17;;;;;;;16.08;4.30;;;;;;;;;;5343624;26;20019;-66
2024/04/11 13:43:42;;;;;;;14.43;3.63;;;;;;;;;;5342829;26;20092;-66
2024/04/11 13:46:10;;;;;;;17.10;3.88;;;;;;;;;;5340186;26;19995;-66
2024/04/11 13:48:47;;;;;;;16.70;4.00;;;;;;;;;;5339941;26;20008;-66
2024/04/11 13:51:15;;;;;;;14.20;3.22;;;;;;;;;;5331374;26;20004;-66
2024/04/11 13:53:44;;;;;;;12.98;3.40;;;;;;;;;;5337165;26;20008;-66
2024/04/11 13:56:15;;;;;;;15.38;3.58;;;;;;;;;;5339822;26;20114;-66
2024/04/11 13:58:48;;;;;;;14.45;3.33;;;;;;;;;;5331283;26;20012;-66
2024/04/11 14:01:41;;;;;;;15.38;3.85;;;;;;;;;;5342422;26;20009;-68
2024/04/11 14:04:15;;;;;;;15.75;3.90;;;;;;;;;;5341951;26;20015;-66
2024/04/11 14:09:20;;;;;;;14.63;3.38;;;;;;;;;;5332369;26;20600;-66
2024/04/11 14:11:47;;;;;;;12.38;3.30;;;;;;;;;;5330462;26;20004;-66
2024/04/11 14:14:20;;;;;;;12.93;3.47;;;;;;;;;;5336104;26;20012;-66
2024/04/11 14:16:56;;;;;;;12.18;3.22;;;;;;;;;;5329924;26;20000;-66
2024/04/11 14:19:38;;;;;;;17.17;3.78;;;;;;;;;;5337725;26;20000;-66
2024/04/11 14:25:16;;;;;;;16.73;3.58;;;;;;;;;;5332783;26;20016;-66
2024/04/11 14:27:47;;;;;;;14.00;3.45;;;;;;;;;;5327465;26;20043;-66
2024/04/11 14:30:15;;;;;;;17.30;4.20;;;;;;;;;;5335870;26;20004;-66
2024/04/11 14:38:09;;;;;;;13.43;3.83;;;;;;;;;;5333209;26;20011;-66
2024/04/11 14:40:39;;;;;;;14.65;3.63;;;;;;;;;;5341780;26;20020;-66
2024/04/11 14:43:10;;;;;;;12.70;3.35;;;;;;;;;;5340939;26;20515;-66
2024/04/11 14:45:41;;;;;;;13.00;3.92;;;;;;;;;;5337846;26;20698;-68
2024/04/11 14:48:18;;;;;;;13.82;3.33;;;;;;;;;;5338097;26;20094;-65
2024/04/11 14:50:55;;;;;;;13.05;3.33;;;;;;;;;;5339951;26;20070;-66
2024/04/11 14:53:24;;;;;;;14.57;3.70;;;;;;;;;;5334127;26;20452;-66
2024/04/11 14:55:55;;;;;;;12.82;3.20;;;;;;;;;;5337479;26;20080;-66
2024/04/11 14:58:30;;;;;;;13.50;2.97;;;;;;;;;;5339444;26;20008;-66
2024/04/11 15:01:14;;;;;;;14.95;3.42;;;;;;;;;;5330070;26;20092;-66
2024/04/11 15:03:44;;;;;;;13.07;3.33;;;;;;;;;;5335491;26;19997;-66
2024/04/11 15:06:15;;;;;;;14.68;3.40;;;;;;;;;;5332808;26;20019;-66
2024/04/11 15:08:43;;;;;;;12.88;3.60;;;;;;;;;;5329724;26;19996;-66
2024/04/11 15:11:13;;;;;;;16.08;3.70;;;;;;;;;;5334090;26;20234;-66
2024/04/11 15:13:44;;;;;;;11.52;2.88;;;;;;;;;;5329331;26;20035;-66
2024/04/11 15:19:04;;;;;;;15.70;3.47;;;;;;;;;;5305224;26;20012;-65
2024/04/11 15:21:44;;;;;;;15.00;3.17;;;;;;;;;;5308894;26;20019;-65
2024/04/11 15:24:13;;;;;;;17.17;3.35;;;;;;;;;;5307810;26;21159;-65